sensor_id;sensor_type;location;lat;lon;timestamp;P1;durP1;ratioP1;P2;durP2;ratioP2
10801;SDS011;5453;50.852;7.102;2022-10-15T00:00:40;4.05;;;2.03;;
10801;SDS011;5453;50.852;7.102;2022-10-15T00:03:12;3.58;;;1.90;;
10801;SDS011;5453;50.852;7.102;2022-10-15T00:05:45;3.03;;;1.80;;
10801;SDS011;5453;50.852;7.102;2022-10-15T00:08:17;3.00;;;2.15;;
10801;SDS011;5453;50.852;7.102;2022-10-15T00:10:51;4.35;;;2.33;;
10801;SDS011;5453;50.852;7.102;2022-10-15T00:13:23;3.28;;;2.00;;
10801;SDS011;5453;50.852;7.102;2022-10-15T00:15:55;3.17;;;2.00;;
10801;SDS011;5453;50.852;7.102;2022-10-15T00:18:27;3.45;;;1.83;;
10801;SDS011;5453;50.852;7.102;2022-10-15T00:21:00;2.22;;;1.60;;
10801;SDS011;5453;50.852;7.102;2022-10-15T00:23:32;1.95;;;1.40;;
10801;SDS011;5453;50.852;7.102;2022-10-15T00:26:06;2.70;;;1.55;;
10801;SDS011;5453;50.852;7.102;2022-10-15T00:28:41;1.80;;;1.30;;
10801;SDS011;5453;50.852;7.102;2022-10-15T00:31:14;2.53;;;1.50;;
10801;SDS011;5453;50.852;7.102;2022-10-15T00:33:52;3.53;;;1.58;;
10801;SDS011;5453;50.852;7.102;2022-10-15T00:36:27;2.22;;;1.33;;
10801;SDS011;5453;50.852;7.102;2022-10-15T00:39:01;2.75;;;1.60;;
10801;SDS011;5453;50.852;7.102;2022-10-15T00:41:39;2.22;;;1.50;;
10801;SDS011;5453;50.852;7.102;2022-10-15T00:47:22;4.07;;;1.40;;
10801;SDS011;5453;50.852;7.102;2022-10-15T00:50:03;3.50;;;1.60;;
10801;SDS011;5453;50.852;7.102;2022-10-15T00:52:41;2.25;;;1.50;;
10801;SDS011;5453;50.852;7.102;2022-10-15T00:55:20;2.80;;;1.60;;
10801;SDS011;5453;50.852;7.102;2022-10-15T00:57:59;4.03;;;1.83;;
10801;SDS011;5453;50.852;7.102;2022-10-15T01:00:36;3.70;;;1.50;;
10801;SDS011;5453;50.852;7.102;2022-10-15T01:03:08;2.05;;;1.30;;
10801;SDS011;5453;50.852;7.102;2022-10-15T01:05:42;2.15;;;1.40;;
10801;SDS011;5453;50.852;7.102;2022-10-15T01:08:17;2.50;;;1.42;;
10801;SDS011;5453;50.852;7.102;2022-10-15T01:10:52;2.17;;;1.30;;
10801;SDS011;5453;50.852;7.102;2022-10-15T01:13:36;2.20;;;1.63;;
10801;SDS011;5453;50.852;7.102;2022-10-15T01:16:18;1.98;;;1.50;;
10801;SDS011;5453;50.852;7.102;2022-10-15T01:18:56;4.30;;;2.20;;
10801;SDS011;5453;50.852;7.102;2022-10-15T01:21:33;3.47;;;1.73;;
10801;SDS011;5453;50.852;7.102;2022-10-15T01:24:24;3.35;;;1.73;;
10801;SDS011;5453;50.852;7.102;2022-10-15T01:30:20;4.00;;;1.70;;
10801;SDS011;5453;50.852;7.102;2022-10-15T01:32:59;2.60;;;1.58;;
10801;SDS011;5453;50.852;7.102;2022-10-15T01:35:56;3.55;;;1.73;;
10801;SDS011;5453;50.852;7.102;2022-10-15T01:38:43;2.65;;;1.58;;
10801;SDS011;5453;50.852;7.102;2022-10-15T01:41:24;3.50;;;1.70;;
10801;SDS011;5453;50.852;7.102;2022-10-15T01:44:02;2.92;;;1.70;;
10801;SDS011;5453;50.852;7.102;2022-10-15T01:46:50;3.05;;;1.60;;
10801;SDS011;5453;50.852;7.102;2022-10-15T01:49:29;3.58;;;1.92;;
10801;SDS011;5453;50.852;7.102;2022-10-15T01:52:08;3.90;;;2.00;;
10801;SDS011;5453;50.852;7.102;2022-10-15T01:54:45;3.08;;;1.70;;
10801;SDS011;5453;50.852;7.102;2022-10-15T01:57:20;5.20;;;2.38;;
10801;SDS011;5453;50.852;7.102;2022-10-15T01:59:56;4.88;;;2.40;;
10801;SDS011;5453;50.852;7.102;2022-10-15T02:02:30;5.20;;;2.13;;
10801;SDS011;5453;50.852;7.102;2022-10-15T02:05:02;4.03;;;1.90;;
10801;SDS011;5453;50.852;7.102;2022-10-15T02:10:17;5.70;;;2.20;;
10801;SDS011;5453;50.852;7.102;2022-10-15T02:12:58;4.47;;;1.90;;
10801;SDS011;5453;50.852;7.102;2022-10-15T02:15:43;5.85;;;2.53;;
10801;SDS011;5453;50.852;7.102;2022-10-15T02:18:25;6.00;;;3.03;;
10801;SDS011;5453;50.852;7.102;2022-10-15T02:21:04;4.65;;;2.50;;
10801;SDS011;5453;50.852;7.102;2022-10-15T02:23:43;5.68;;;2.83;;
10801;SDS011;5453;50.852;7.102;2022-10-15T02:26:21;6.22;;;2.55;;
10801;SDS011;5453;50.852;7.102;2022-10-15T02:28:58;5.10;;;2.58;;
10801;SDS011;5453;50.852;7.102;2022-10-15T02:31:34;3.85;;;1.95;;
10801;SDS011;5453;50.852;7.102;2022-10-15T02:34:14;5.50;;;2.50;;
10801;SDS011;5453;50.852;7.102;2022-10-15T02:36:50;5.63;;;2.65;;
10801;SDS011;5453;50.852;7.102;2022-10-15T02:39:23;4.07;;;2.25;;
10801;SDS011;5453;50.852;7.102;2022-10-15T02:41:56;4.78;;;2.10;;
10801;SDS011;5453;50.852;7.102;2022-10-15T02:44:29;3.75;;;2.05;;
10801;SDS011;5453;50.852;7.102;2022-10-15T02:47:01;4.35;;;2.00;;
10801;SDS011;5453;50.852;7.102;2022-10-15T02:49:35;3.55;;;2.25;;
10801;SDS011;5453;50.852;7.102;2022-10-15T02:52:07;3.88;;;2.13;;
10801;SDS011;5453;50.852;7.102;2022-10-15T02:54:39;3.40;;;1.80;;
10801;SDS011;5453;50.852;7.102;2022-10-15T02:57:12;3.58;;;2.08;;
10801;SDS011;5453;50.852;7.102;2022-10-15T03:02:18;3.65;;;2.25;;
10801;SDS011;5453;50.852;7.102;2022-10-15T03:04:53;3.88;;;2.15;;
10801;SDS011;5453;50.852;7.102;2022-10-15T03:07:26;3.38;;;2.00;;
10801;SDS011;5453;50.852;7.102;2022-10-15T03:10:00;2.83;;;1.70;;
10801;SDS011;5453;50.852;7.102;2022-10-15T03:12:33;3.75;;;2.00;;
10801;SDS011;5453;50.852;7.102;2022-10-15T03:15:05;3.40;;;1.75;;
10801;SDS011;5453;50.852;7.102;2022-10-15T03:17:39;2.90;;;1.52;;
10801;SDS011;5453;50.852;7.102;2022-10-15T03:20:13;2.65;;;1.60;;
10801;SDS011;5453;50.852;7.102;2022-10-15T03:22:46;2.40;;;1.50;;
10801;SDS011;5453;50.852;7.102;2022-10-15T03:25:19;2.90;;;1.80;;
10801;SDS011;5453;50.852;7.102;2022-10-15T03:28:01;2.70;;;1.85;;
10801;SDS011;5453;50.852;7.102;2022-10-15T03:30:43;2.78;;;1.40;;
10801;SDS011;5453;50.852;7.102;2022-10-15T03:33:16;2.33;;;1.50;;
10801;SDS011;5453;50.852;7.102;2022-10-15T03:35:50;3.55;;;1.70;;
10801;SDS011;5453;50.852;7.102;2022-10-15T03:38:24;3.17;;;1.80;;
10801;SDS011;5453;50.852;7.102;2022-10-15T03:40:57;1.95;;;1.30;;
10801;SDS011;5453;50.852;7.102;2022-10-15T03:43:44;2.40;;;1.58;;
10801;SDS011;5453;50.852;7.102;2022-10-15T03:46:17;2.90;;;1.40;;
10801;SDS011;5453;50.852;7.102;2022-10-15T03:48:52;2.78;;;1.80;;
10801;SDS011;5453;50.852;7.102;2022-10-15T03:51:26;2.33;;;1.67;;
10801;SDS011;5453;50.852;7.102;2022-10-15T03:54:07;3.03;;;1.60;;
10801;SDS011;5453;50.852;7.102;2022-10-15T03:56:47;2.83;;;1.70;;
10801;SDS011;5453;50.852;7.102;2022-10-15T03:59:27;4.03;;;2.00;;
10801;SDS011;5453;50.852;7.102;2022-10-15T04:02:02;3.25;;;1.85;;
10801;SDS011;5453;50.852;7.102;2022-10-15T04:04:36;3.60;;;1.80;;
10801;SDS011;5453;50.852;7.102;2022-10-15T04:07:09;2.90;;;1.90;;
10801;SDS011;5453;50.852;7.102;2022-10-15T04:09:42;3.08;;;1.92;;
10801;SDS011;5453;50.852;7.102;2022-10-15T04:12:30;6.15;;;2.58;;
10801;SDS011;5453;50.852;7.102;2022-10-15T04:15:02;3.75;;;2.45;;
10801;SDS011;5453;50.852;7.102;2022-10-15T04:17:36;4.07;;;2.33;;
10801;SDS011;5453;50.852;7.102;2022-10-15T04:20:08;5.57;;;2.50;;
10801;SDS011;5453;50.852;7.102;2022-10-15T04:22:43;3.63;;;2.00;;
10801;SDS011;5453;50.852;7.102;2022-10-15T04:25:16;4.75;;;1.90;;
10801;SDS011;5453;50.852;7.102;2022-10-15T04:27:48;4.50;;;2.03;;
10801;SDS011;5453;50.852;7.102;2022-10-15T04:30:22;4.82;;;2.60;;
10801;SDS011;5453;50.852;7.102;2022-10-15T04:33:01;3.58;;;2.28;;
10801;SDS011;5453;50.852;7.102;2022-10-15T04:35:33;2.78;;;1.73;;
10801;SDS011;5453;50.852;7.102;2022-10-15T04:38:14;6.32;;;2.72;;
10801;SDS011;5453;50.852;7.102;2022-10-15T04:41:08;4.30;;;2.28;;
10801;SDS011;5453;50.852;7.102;2022-10-15T04:44:11;4.90;;;2.13;;
10801;SDS011;5453;50.852;7.102;2022-10-15T04:46:48;3.67;;;2.10;;
10801;SDS011;5453;50.852;7.102;2022-10-15T04:49:47;3.20;;;1.58;;
10801;SDS011;5453;50.852;7.102;2022-10-15T04:52:58;2.30;;;1.58;;
10801;SDS011;5453;50.852;7.102;2022-10-15T04:55:34;2.28;;;1.52;;
10801;SDS011;5453;50.852;7.102;2022-10-15T04:58:06;3.15;;;1.83;;
10801;SDS011;5453;50.852;7.102;2022-10-15T05:00:38;3.50;;;1.92;;
10801;SDS011;5453;50.852;7.102;2022-10-15T05:03:29;3.47;;;2.20;;
10801;SDS011;5453;50.852;7.102;2022-10-15T05:06:08;2.65;;;1.95;;
10801;SDS011;5453;50.852;7.102;2022-10-15T05:08:42;3.72;;;1.80;;
10801;SDS011;5453;50.852;7.102;2022-10-15T05:11:23;2.83;;;1.48;;
10801;SDS011;5453;50.852;7.102;2022-10-15T05:13:58;1.45;;;1.13;;
10801;SDS011;5453;50.852;7.102;2022-10-15T05:16:31;2.80;;;1.45;;
10801;SDS011;5453;50.852;7.102;2022-10-15T05:19:05;3.97;;;1.90;;
10801;SDS011;5453;50.852;7.102;2022-10-15T05:21:41;4.20;;;1.73;;
10801;SDS011;5453;50.852;7.102;2022-10-15T05:24:23;2.75;;;1.58;;
10801;SDS011;5453;50.852;7.102;2022-10-15T05:27:02;2.60;;;1.42;;
10801;SDS011;5453;50.852;7.102;2022-10-15T05:29:37;2.70;;;1.73;;
10801;SDS011;5453;50.852;7.102;2022-10-15T05:32:09;4.55;;;1.85;;
10801;SDS011;5453;50.852;7.102;2022-10-15T05:34:43;4.60;;;2.20;;
10801;SDS011;5453;50.852;7.102;2022-10-15T05:37:18;2.65;;;1.50;;
10801;SDS011;5453;50.852;7.102;2022-10-15T05:39:52;2.35;;;1.40;;
10801;SDS011;5453;50.852;7.102;2022-10-15T05:42:25;3.38;;;1.77;;
10801;SDS011;5453;50.852;7.102;2022-10-15T05:45:01;6.20;;;3.70;;
10801;SDS011;5453;50.852;7.102;2022-10-15T05:47:34;7.70;;;4.38;;
10801;SDS011;5453;50.852;7.102;2022-10-15T05:50:20;5.38;;;3.20;;
10801;SDS011;5453;50.852;7.102;2022-10-15T05:52:54;5.00;;;3.20;;
10801;SDS011;5453;50.852;7.102;2022-10-15T05:55:41;4.85;;;3.28;;
10801;SDS011;5453;50.852;7.102;2022-10-15T05:58:16;5.32;;;3.47;;
10801;SDS011;5453;50.852;7.102;2022-10-15T06:00:51;4.50;;;2.50;;
10801;SDS011;5453;50.852;7.102;2022-10-15T06:03:25;3.72;;;2.45;;
10801;SDS011;5453;50.852;7.102;2022-10-15T06:05:58;4.53;;;2.38;;
10801;SDS011;5453;50.852;7.102;2022-10-15T06:08:33;3.60;;;2.58;;
10801;SDS011;5453;50.852;7.102;2022-10-15T06:11:05;3.38;;;2.00;;
10801;SDS011;5453;50.852;7.102;2022-10-15T06:13:39;3.90;;;2.55;;
10801;SDS011;5453;50.852;7.102;2022-10-15T06:16:13;3.50;;;2.03;;
10801;SDS011;5453;50.852;7.102;2022-10-15T06:18:47;3.33;;;2.05;;
10801;SDS011;5453;50.852;7.102;2022-10-15T06:21:19;5.50;;;2.67;;
10801;SDS011;5453;50.852;7.102;2022-10-15T06:23:51;8.48;;;3.60;;
10801;SDS011;5453;50.852;7.102;2022-10-15T06:26:23;11.05;;;4.53;;
10801;SDS011;5453;50.852;7.102;2022-10-15T06:28:56;8.45;;;3.55;;
10801;SDS011;5453;50.852;7.102;2022-10-15T06:31:29;6.80;;;3.30;;
10801;SDS011;5453;50.852;7.102;2022-10-15T06:34:02;11.38;;;5.63;;
10801;SDS011;5453;50.852;7.102;2022-10-15T06:36:34;6.30;;;3.47;;
10801;SDS011;5453;50.852;7.102;2022-10-15T06:39:06;7.82;;;4.10;;
10801;SDS011;5453;50.852;7.102;2022-10-15T06:41:38;7.28;;;3.78;;
10801;SDS011;5453;50.852;7.102;2022-10-15T06:44:11;5.97;;;3.25;;
10801;SDS011;5453;50.852;7.102;2022-10-15T06:46:43;7.10;;;3.25;;
10801;SDS011;5453;50.852;7.102;2022-10-15T06:49:15;6.25;;;2.92;;
10801;SDS011;5453;50.852;7.102;2022-10-15T06:51:48;3.95;;;2.30;;
10801;SDS011;5453;50.852;7.102;2022-10-15T06:54:20;4.10;;;2.35;;
10801;SDS011;5453;50.852;7.102;2022-10-15T06:56:52;7.50;;;2.78;;
10801;SDS011;5453;50.852;7.102;2022-10-15T06:59:25;3.30;;;1.75;;
10801;SDS011;5453;50.852;7.102;2022-10-15T07:01:58;3.63;;;2.35;;
10801;SDS011;5453;50.852;7.102;2022-10-15T07:04:30;3.22;;;1.85;;
10801;SDS011;5453;50.852;7.102;2022-10-15T07:07:02;3.08;;;1.90;;
10801;SDS011;5453;50.852;7.102;2022-10-15T07:09:34;3.80;;;2.58;;
10801;SDS011;5453;50.852;7.102;2022-10-15T07:12:07;3.90;;;2.22;;
10801;SDS011;5453;50.852;7.102;2022-10-15T07:14:40;3.53;;;2.45;;
10801;SDS011;5453;50.852;7.102;2022-10-15T07:17:13;2.65;;;1.80;;
10801;SDS011;5453;50.852;7.102;2022-10-15T07:19:45;5.55;;;2.83;;
10801;SDS011;5453;50.852;7.102;2022-10-15T07:22:17;3.90;;;2.40;;
10801;SDS011;5453;50.852;7.102;2022-10-15T07:24:49;4.38;;;3.05;;
10801;SDS011;5453;50.852;7.102;2022-10-15T07:27:21;5.40;;;3.00;;
10801;SDS011;5453;50.852;7.102;2022-10-15T07:29:56;4.55;;;2.15;;
10801;SDS011;5453;50.852;7.102;2022-10-15T07:32:29;4.95;;;2.70;;
10801;SDS011;5453;50.852;7.102;2022-10-15T07:35:01;3.85;;;2.60;;
10801;SDS011;5453;50.852;7.102;2022-10-15T07:37:34;4.93;;;2.33;;
10801;SDS011;5453;50.852;7.102;2022-10-15T07:40:06;4.53;;;2.38;;
10801;SDS011;5453;50.852;7.102;2022-10-15T07:42:40;4.18;;;2.33;;
10801;SDS011;5453;50.852;7.102;2022-10-15T07:45:14;2.70;;;1.90;;
10801;SDS011;5453;50.852;7.102;2022-10-15T07:47:46;3.78;;;2.40;;
10801;SDS011;5453;50.852;7.102;2022-10-15T07:50:19;3.67;;;2.33;;
10801;SDS011;5453;50.852;7.102;2022-10-15T07:52:51;2.90;;;1.92;;
10801;SDS011;5453;50.852;7.102;2022-10-15T07:55:23;2.22;;;1.70;;
10801;SDS011;5453;50.852;7.102;2022-10-15T07:57:55;1.77;;;1.42;;
10801;SDS011;5453;50.852;7.102;2022-10-15T08:00:29;1.77;;;1.05;;
10801;SDS011;5453;50.852;7.102;2022-10-15T08:03:02;2.67;;;1.60;;
10801;SDS011;5453;50.852;7.102;2022-10-15T08:05:34;1.25;;;1.02;;
10801;SDS011;5453;50.852;7.102;2022-10-15T08:08:06;1.63;;;1.15;;
10801;SDS011;5453;50.852;7.102;2022-10-15T08:10:38;2.45;;;1.20;;
10801;SDS011;5453;50.852;7.102;2022-10-15T08:13:11;2.50;;;1.05;;
10801;SDS011;5453;50.852;7.102;2022-10-15T08:15:47;2.28;;;1.15;;
10801;SDS011;5453;50.852;7.102;2022-10-15T08:18:19;1.17;;;0.90;;
10801;SDS011;5453;50.852;7.102;2022-10-15T08:20:51;2.63;;;1.00;;
10801;SDS011;5453;50.852;7.102;2022-10-15T08:23:24;1.20;;;1.00;;
10801;SDS011;5453;50.852;7.102;2022-10-15T08:25:56;1.15;;;0.88;;
10801;SDS011;5453;50.852;7.102;2022-10-15T08:28:30;1.48;;;1.02;;
10801;SDS011;5453;50.852;7.102;2022-10-15T08:31:05;1.10;;;0.90;;
10801;SDS011;5453;50.852;7.102;2022-10-15T08:33:37;0.88;;;0.70;;
10801;SDS011;5453;50.852;7.102;2022-10-15T08:36:09;2.42;;;1.08;;
10801;SDS011;5453;50.852;7.102;2022-10-15T08:38:41;2.20;;;1.00;;
10801;SDS011;5453;50.852;7.102;2022-10-15T08:41:17;1.67;;;0.90;;
10801;SDS011;5453;50.852;7.102;2022-10-15T08:43:56;1.83;;;0.90;;
10801;SDS011;5453;50.852;7.102;2022-10-15T08:46:32;1.63;;;0.90;;
10801;SDS011;5453;50.852;7.102;2022-10-15T08:49:11;1.85;;;0.82;;
10801;SDS011;5453;50.852;7.102;2022-10-15T08:52:06;1.65;;;0.80;;
10801;SDS011;5453;50.852;7.102;2022-10-15T08:54:47;1.10;;;0.70;;
10801;SDS011;5453;50.852;7.102;2022-10-15T08:57:28;0.98;;;0.63;;
10801;SDS011;5453;50.852;7.102;2022-10-15T09:00:11;1.27;;;0.90;;
10801;SDS011;5453;50.852;7.102;2022-10-15T09:02:55;1.08;;;0.73;;
10801;SDS011;5453;50.852;7.102;2022-10-15T09:05:34;2.10;;;0.80;;
10801;SDS011;5453;50.852;7.102;2022-10-15T09:08:16;1.63;;;0.80;;
10801;SDS011;5453;50.852;7.102;2022-10-15T09:10:58;1.52;;;0.75;;
10801;SDS011;5453;50.852;7.102;2022-10-15T09:13:36;1.17;;;0.70;;
10801;SDS011;5453;50.852;7.102;2022-10-15T09:16:11;1.00;;;0.80;;
10801;SDS011;5453;50.852;7.102;2022-10-15T09:18:49;1.10;;;1.00;;
10801;SDS011;5453;50.852;7.102;2022-10-15T09:21:22;2.08;;;0.70;;
10801;SDS011;5453;50.852;7.102;2022-10-15T09:23:55;1.25;;;0.82;;
10801;SDS011;5453;50.852;7.102;2022-10-15T09:26:35;2.67;;;1.27;;
10801;SDS011;5453;50.852;7.102;2022-10-15T09:29:21;1.98;;;0.70;;
10801;SDS011;5453;50.852;7.102;2022-10-15T09:32:00;1.42;;;0.77;;
10801;SDS011;5453;50.852;7.102;2022-10-15T09:34:44;2.33;;;1.10;;
10801;SDS011;5453;50.852;7.102;2022-10-15T09:37:23;1.30;;;0.80;;
10801;SDS011;5453;50.852;7.102;2022-10-15T09:40:08;1.45;;;0.80;;
10801;SDS011;5453;50.852;7.102;2022-10-15T09:43:01;0.80;;;0.70;;
10801;SDS011;5453;50.852;7.102;2022-10-15T09:45:34;2.05;;;1.00;;
10801;SDS011;5453;50.852;7.102;2022-10-15T09:48:11;0.80;;;0.70;;
10801;SDS011;5453;50.852;7.102;2022-10-15T09:50:52;1.00;;;0.77;;
10801;SDS011;5453;50.852;7.102;2022-10-15T09:53:34;1.38;;;0.80;;
10801;SDS011;5453;50.852;7.102;2022-10-15T09:56:17;0.68;;;0.60;;
10801;SDS011;5453;50.852;7.102;2022-10-15T09:58:54;1.10;;;0.88;;
10801;SDS011;5453;50.852;7.102;2022-10-15T10:01:29;0.85;;;0.70;;
10801;SDS011;5453;50.852;7.102;2022-10-15T10:04:10;2.92;;;0.60;;
10801;SDS011;5453;50.852;7.102;2022-10-15T10:06:47;1.63;;;0.50;;
10801;SDS011;5453;50.852;7.102;2022-10-15T10:09:23;0.55;;;0.50;;
10801;SDS011;5453;50.852;7.102;2022-10-15T10:12:03;1.08;;;0.40;;
10801;SDS011;5453;50.852;7.102;2022-10-15T10:14:39;0.50;;;0.40;;
10801;SDS011;5453;50.852;7.102;2022-10-15T10:17:18;0.52;;;0.30;;
10801;SDS011;5453;50.852;7.102;2022-10-15T10:20:13;0.73;;;0.60;;
10801;SDS011;5453;50.852;7.102;2022-10-15T10:22:50;1.13;;;0.55;;
10801;SDS011;5453;50.852;7.102;2022-10-15T10:25:31;1.15;;;0.50;;
10801;SDS011;5453;50.852;7.102;2022-10-15T10:28:15;0.85;;;0.50;;
10801;SDS011;5453;50.852;7.102;2022-10-15T10:30:58;1.25;;;0.50;;
10801;SDS011;5453;50.852;7.102;2022-10-15T10:33:35;1.42;;;0.40;;
10801;SDS011;5453;50.852;7.102;2022-10-15T10:36:20;0.77;;;0.47;;
10801;SDS011;5453;50.852;7.102;2022-10-15T10:39:02;0.82;;;0.50;;
10801;SDS011;5453;50.852;7.102;2022-10-15T10:41:47;1.05;;;0.50;;
10801;SDS011;5453;50.852;7.102;2022-10-15T10:44:21;0.88;;;0.68;;
10801;SDS011;5453;50.852;7.102;2022-10-15T10:47:09;0.40;;;0.40;;
10801;SDS011;5453;50.852;7.102;2022-10-15T10:49:45;0.55;;;0.40;;
10801;SDS011;5453;50.852;7.102;2022-10-15T10:52:23;1.15;;;0.50;;
10801;SDS011;5453;50.852;7.102;2022-10-15T10:55:00;1.35;;;0.50;;
10801;SDS011;5453;50.852;7.102;2022-10-15T10:57:40;0.93;;;0.60;;
10801;SDS011;5453;50.852;7.102;2022-10-15T11:00:16;0.70;;;0.70;;
10801;SDS011;5453;50.852;7.102;2022-10-15T11:02:53;0.50;;;0.40;;
10801;SDS011;5453;50.852;7.102;2022-10-15T11:05:26;0.45;;;0.43;;
10801;SDS011;5453;50.852;7.102;2022-10-15T11:08:05;1.10;;;0.47;;
10801;SDS011;5453;50.852;7.102;2022-10-15T11:10:47;0.80;;;0.50;;
10801;SDS011;5453;50.852;7.102;2022-10-15T11:13:33;0.55;;;0.43;;
10801;SDS011;5453;50.852;7.102;2022-10-15T11:16:19;1.85;;;0.40;;
10801;SDS011;5453;50.852;7.102;2022-10-15T11:19:04;2.33;;;0.60;;
10801;SDS011;5453;50.852;7.102;2022-10-15T11:21:58;3.10;;;0.50;;
10801;SDS011;5453;50.852;7.102;2022-10-15T11:24:47;0.88;;;0.55;;
10801;SDS011;5453;50.852;7.102;2022-10-15T11:27:34;3.38;;;0.60;;
10801;SDS011;5453;50.852;7.102;2022-10-15T11:30:26;5.78;;;0.60;;
10801;SDS011;5453;50.852;7.102;2022-10-15T11:33:14;1.10;;;0.43;;
10801;SDS011;5453;50.852;7.102;2022-10-15T11:36:07;1.40;;;0.60;;
10801;SDS011;5453;50.852;7.102;2022-10-15T11:39:06;2.00;;;0.40;;
10801;SDS011;5453;50.852;7.102;2022-10-15T11:42:00;1.00;;;0.30;;
10801;SDS011;5453;50.852;7.102;2022-10-15T11:44:53;0.50;;;0.50;;
10801;SDS011;5453;50.852;7.102;2022-10-15T11:47:41;1.20;;;0.43;;
10801;SDS011;5453;50.852;7.102;2022-10-15T11:50:25;3.05;;;0.50;;
10801;SDS011;5453;50.852;7.102;2022-10-15T11:53:04;0.75;;;0.30;;
10801;SDS011;5453;50.852;7.102;2022-10-15T11:56:19;1.15;;;0.47;;
10801;SDS011;5453;50.852;7.102;2022-10-15T11:58:56;0.45;;;0.35;;
10801;SDS011;5453;50.852;7.102;2022-10-15T12:01:35;0.75;;;0.55;;
10801;SDS011;5453;50.852;7.102;2022-10-15T12:04:13;3.05;;;0.30;;
10801;SDS011;5453;50.852;7.102;2022-10-15T12:07:05;2.17;;;0.40;;
10801;SDS011;5453;50.852;7.102;2022-10-15T12:09:45;2.42;;;0.60;;
10801;SDS011;5453;50.852;7.102;2022-10-15T12:12:28;3.20;;;0.45;;
10801;SDS011;5453;50.852;7.102;2022-10-15T12:17:54;1.00;;;0.30;;
10801;SDS011;5453;50.852;7.102;2022-10-15T12:20:32;0.85;;;0.30;;
10801;SDS011;5453;50.852;7.102;2022-10-15T12:23:04;1.77;;;0.30;;
10801;SDS011;5453;50.852;7.102;2022-10-15T12:25:41;0.22;;;0.20;;
10801;SDS011;5453;50.852;7.102;2022-10-15T12:28:17;0.50;;;0.50;;
10801;SDS011;5453;50.852;7.102;2022-10-15T12:30:55;0.30;;;0.30;;
10801;SDS011;5453;50.852;7.102;2022-10-15T12:33:34;0.30;;;0.30;;
10801;SDS011;5453;50.852;7.102;2022-10-15T12:36:22;1.13;;;0.30;;
10801;SDS011;5453;50.852;7.102;2022-10-15T12:38:57;0.22;;;0.22;;
10801;SDS011;5453;50.852;7.102;2022-10-15T12:41:36;0.52;;;0.25;;
10801;SDS011;5453;50.852;7.102;2022-10-15T12:44:14;0.25;;;0.17;;
10801;SDS011;5453;50.852;7.102;2022-10-15T12:46:52;0.25;;;0.20;;
10801;SDS011;5453;50.852;7.102;2022-10-15T12:49:45;0.13;;;0.13;;
10801;SDS011;5453;50.852;7.102;2022-10-15T12:55:26;0.17;;;0.17;;
10801;SDS011;5453;50.852;7.102;2022-10-15T12:58:02;0.20;;;0.20;;
10801;SDS011;5453;50.852;7.102;2022-10-15T13:00:37;0.10;;;0.10;;
10801;SDS011;5453;50.852;7.102;2022-10-15T13:06:13;0.20;;;0.20;;
10801;SDS011;5453;50.852;7.102;2022-10-15T13:09:05;0.20;;;0.20;;
10801;SDS011;5453;50.852;7.102;2022-10-15T13:11:58;0.10;;;0.10;;
10801;SDS011;5453;50.852;7.102;2022-10-15T13:14:32;0.10;;;0.10;;
10801;SDS011;5453;50.852;7.102;2022-10-15T13:17:12;0.10;;;0.10;;
10801;SDS011;5453;50.852;7.102;2022-10-15T13:19:47;0.20;;;0.20;;
10801;SDS011;5453;50.852;7.102;2022-10-15T13:22:28;0.57;;;0.20;;
10801;SDS011;5453;50.852;7.102;2022-10-15T13:25:13;0.10;;;0.10;;
10801;SDS011;5453;50.852;7.102;2022-10-15T13:27:46;0.10;;;0.10;;
10801;SDS011;5453;50.852;7.102;2022-10-15T13:30:18;0.13;;;0.13;;
10801;SDS011;5453;50.852;7.102;2022-10-15T13:32:51;0.35;;;0.15;;
10801;SDS011;5453;50.852;7.102;2022-10-15T13:35:26;0.10;;;0.10;;
10801;SDS011;5453;50.852;7.102;2022-10-15T13:38:02;0.10;;;0.10;;
10801;SDS011;5453;50.852;7.102;2022-10-15T13:40:35;0.32;;;0.10;;
10801;SDS011;5453;50.852;7.102;2022-10-15T13:43:13;0.10;;;0.10;;
10801;SDS011;5453;50.852;7.102;2022-10-15T13:45:48;0.57;;;0.22;;
10801;SDS011;5453;50.852;7.102;2022-10-15T13:48:24;0.20;;;0.15;;
10801;SDS011;5453;50.852;7.102;2022-10-15T13:50:59;0.40;;;0.20;;
10801;SDS011;5453;50.852;7.102;2022-10-15T13:53:34;0.13;;;0.13;;
10801;SDS011;5453;50.852;7.102;2022-10-15T13:56:16;0.17;;;0.17;;
10801;SDS011;5453;50.852;7.102;2022-10-15T13:58:57;0.30;;;0.20;;
10801;SDS011;5453;50.852;7.102;2022-10-15T14:01:31;0.40;;;0.20;;
10801;SDS011;5453;50.852;7.102;2022-10-15T14:04:12;0.75;;;0.10;;
10801;SDS011;5453;50.852;7.102;2022-10-15T14:06:54;0.25;;;0.17;;
10801;SDS011;5453;50.852;7.102;2022-10-15T14:09:32;0.20;;;0.20;;
10801;SDS011;5453;50.852;7.102;2022-10-15T14:12:06;0.30;;;0.20;;
10801;SDS011;5453;50.852;7.102;2022-10-15T14:14:41;0.70;;;0.25;;
10801;SDS011;5453;50.852;7.102;2022-10-15T14:17:20;0.30;;;0.25;;
10801;SDS011;5453;50.852;7.102;2022-10-15T14:19:54;0.38;;;0.20;;
10801;SDS011;5453;50.852;7.102;2022-10-15T14:22:29;0.40;;;0.40;;
10801;SDS011;5453;50.852;7.102;2022-10-15T14:25:03;0.20;;;0.20;;
10801;SDS011;5453;50.852;7.102;2022-10-15T14:27:43;0.50;;;0.50;;
10801;SDS011;5453;50.852;7.102;2022-10-15T14:30:19;0.38;;;0.35;;
10801;SDS011;5453;50.852;7.102;2022-10-15T14:32:58;0.35;;;0.35;;
10801;SDS011;5453;50.852;7.102;2022-10-15T14:35:31;0.22;;;0.22;;
10801;SDS011;5453;50.852;7.102;2022-10-15T14:38:13;0.20;;;0.20;;
10801;SDS011;5453;50.852;7.102;2022-10-15T14:40:56;0.30;;;0.30;;
10801;SDS011;5453;50.852;7.102;2022-10-15T14:43:31;0.35;;;0.35;;
10801;SDS011;5453;50.852;7.102;2022-10-15T14:46:05;0.13;;;0.13;;
10801;SDS011;5453;50.852;7.102;2022-10-15T14:48:44;0.63;;;0.20;;
10801;SDS011;5453;50.852;7.102;2022-10-15T14:51:18;0.20;;;0.20;;
10801;SDS011;5453;50.852;7.102;2022-10-15T14:53:54;0.45;;;0.28;;
10801;SDS011;5453;50.852;7.102;2022-10-15T14:56:29;0.40;;;0.25;;
10801;SDS011;5453;50.852;7.102;2022-10-15T14:59:03;0.22;;;0.22;;
10801;SDS011;5453;50.852;7.102;2022-10-15T15:07:12;0.38;;;0.22;;
10801;SDS011;5453;50.852;7.102;2022-10-15T15:09:48;0.30;;;0.20;;
10801;SDS011;5453;50.852;7.102;2022-10-15T15:12:23;0.80;;;0.20;;
10801;SDS011;5453;50.852;7.102;2022-10-15T15:14:57;0.25;;;0.25;;
10801;SDS011;5453;50.852;7.102;2022-10-15T15:17:29;1.45;;;0.50;;
10801;SDS011;5453;50.852;7.102;2022-10-15T15:20:02;1.20;;;0.38;;
10801;SDS011;5453;50.852;7.102;2022-10-15T15:22:35;0.30;;;0.20;;
10801;SDS011;5453;50.852;7.102;2022-10-15T15:25:12;0.45;;;0.30;;
10801;SDS011;5453;50.852;7.102;2022-10-15T15:27:48;0.40;;;0.22;;
10801;SDS011;5453;50.852;7.102;2022-10-15T15:30:21;0.22;;;0.22;;
10801;SDS011;5453;50.852;7.102;2022-10-15T15:32:55;0.30;;;0.30;;
10801;SDS011;5453;50.852;7.102;2022-10-15T15:35:31;0.30;;;0.30;;
10801;SDS011;5453;50.852;7.102;2022-10-15T15:38:10;1.15;;;0.40;;
10801;SDS011;5453;50.852;7.102;2022-10-15T15:40:42;0.25;;;0.20;;
10801;SDS011;5453;50.852;7.102;2022-10-15T15:43:16;0.40;;;0.28;;
10801;SDS011;5453;50.852;7.102;2022-10-15T15:48:21;1.65;;;0.30;;
10801;SDS011;5453;50.852;7.102;2022-10-15T15:50:53;0.60;;;0.28;;
10801;SDS011;5453;50.852;7.102;2022-10-15T15:53:32;0.93;;;0.30;;
10801;SDS011;5453;50.852;7.102;2022-10-15T15:56:05;0.88;;;0.40;;
10801;SDS011;5453;50.852;7.102;2022-10-15T15:58:39;0.50;;;0.50;;
10801;SDS011;5453;50.852;7.102;2022-10-15T16:01:11;0.70;;;0.38;;
10801;SDS011;5453;50.852;7.102;2022-10-15T16:03:43;0.43;;;0.40;;
10801;SDS011;5453;50.852;7.102;2022-10-15T16:06:15;0.43;;;0.38;;
10801;SDS011;5453;50.852;7.102;2022-10-15T16:08:47;0.85;;;0.40;;
10801;SDS011;5453;50.852;7.102;2022-10-15T16:11:22;0.55;;;0.40;;
10801;SDS011;5453;50.852;7.102;2022-10-15T16:13:55;1.55;;;0.70;;
10801;SDS011;5453;50.852;7.102;2022-10-15T16:16:27;0.38;;;0.38;;
10801;SDS011;5453;50.852;7.102;2022-10-15T16:18:59;0.65;;;0.50;;
10801;SDS011;5453;50.852;7.102;2022-10-15T16:21:31;0.70;;;0.50;;
10801;SDS011;5453;50.852;7.102;2022-10-15T16:24:04;1.25;;;0.40;;
10801;SDS011;5453;50.852;7.102;2022-10-15T16:26:36;0.60;;;0.55;;
10801;SDS011;5453;50.852;7.102;2022-10-15T16:29:10;1.00;;;0.47;;